createdAt,value
2022-12-22T00:01:06.062Z,11.11
2022-12-22T00:02:39.050Z,11.10
2022-12-22T00:04:00.294Z,11.08
2022-12-22T00:05:46.702Z,11.02
2022-12-22T00:07:07.527Z,10.85
2022-12-22T00:08:29.525Z,10.81
2022-12-22T00:09:50.352Z,10.76
2022-12-22T00:11:13.010Z,10.75
2022-12-22T00:12:37.571Z,10.78
2022-12-22T00:14:04.156Z,10.77
2022-12-22T00:15:31.912Z,10.72
2022-12-22T00:16:55.238Z,10.77
2022-12-22T00:18:16.102Z,10.73
2022-12-22T00:19:37.541Z,10.76
2022-12-22T00:20:58.248Z,10.82
2022-12-22T00:22:24.391Z,10.87
2022-12-22T00:23:45.525Z,10.91
2022-12-22T00:25:06.401Z,10.85
2022-12-22T00:26:27.716Z,10.87
2022-12-22T00:27:50.606Z,10.88
2022-12-22T00:29:11.539Z,10.79
2022-12-22T00:30:36.231Z,10.80
2022-12-22T00:31:57.184Z,10.80
2022-12-22T00:33:20.358Z,10.84
2022-12-22T00:34:41.950Z,10.80
2022-12-22T00:36:03.230Z,10.76
2022-12-22T00:37:23.928Z,10.72
2022-12-22T00:38:47.374Z,10.71
2022-12-22T00:40:09.252Z,10.63
2022-12-22T00:41:30.603Z,10.57
2022-12-22T00:42:51.243Z,10.51
2022-12-22T00:44:11.822Z,10.54
2022-12-22T00:45:33.205Z,10.60
2022-12-22T00:47:02.215Z,10.64
2022-12-22T00:48:24.339Z,10.59
2022-12-22T00:49:47.292Z,10.67
2022-12-22T00:51:08.313Z,10.71
2022-12-22T00:52:31.184Z,10.75
2022-12-22T00:53:52.098Z,10.78
2022-12-22T00:55:13.578Z,10.79
2022-12-22T00:56:34.589Z,10.74
2022-12-22T00:57:55.513Z,10.77
2022-12-22T00:59:19.305Z,10.76
2022-12-22T01:00:39.782Z,10.77
2022-12-22T01:02:01.674Z,10.78
2022-12-22T01:03:23.540Z,10.79
2022-12-22T01:04:44.113Z,10.84
2022-12-22T01:06:05.342Z,10.86
2022-12-22T01:07:28.495Z,10.88
2022-12-22T01:08:49.575Z,10.89
2022-12-22T01:10:11.902Z,10.90
2022-12-22T01:11:34.032Z,10.85
2022-12-22T01:12:59.534Z,10.78
2022-12-22T01:14:20.426Z,10.74
2022-12-22T01:15:42.770Z,10.79
2022-12-22T01:17:03.610Z,10.85
2022-12-22T01:18:24.777Z,10.89
2022-12-22T01:19:45.554Z,10.90
2022-12-22T01:21:06.464Z,10.96
2022-12-22T01:22:34.304Z,11.01
2022-12-22T01:23:55.461Z,11.01
2022-12-22T01:25:16.472Z,11.03
2022-12-22T01:26:38.722Z,11.02
2022-12-22T01:27:59.016Z,11.03
2022-12-22T01:29:20.428Z,11.00
2022-12-22T01:30:41.091Z,11.00
2022-12-22T01:32:01.962Z,10.98
2022-12-22T01:33:22.696Z,10.90
2022-12-22T01:34:43.503Z,10.86
2022-12-22T01:36:03.970Z,10.90
2022-12-22T01:37:24.591Z,10.90
2022-12-22T01:38:45.351Z,10.91
2022-12-22T01:40:05.794Z,10.93
2022-12-22T01:41:35.011Z,10.87
2022-12-22T01:42:55.906Z,10.91
2022-12-22T01:44:16.594Z,10.95
2022-12-22T01:45:44.953Z,11.00
2022-12-22T01:47:07.030Z,11.00
2022-12-22T01:48:31.604Z,11.01
2022-12-22T01:50:01.132Z,11.04
2022-12-22T01:51:27.846Z,11.09
2022-12-22T01:52:55.139Z,11.15
2022-12-22T01:54:17.148Z,11.21
2022-12-22T01:55:43.814Z,11.24
2022-12-22T01:57:07.517Z,11.29
2022-12-22T01:58:44.077Z,11.34
2022-12-22T02:00:04.600Z,11.40
2022-12-22T02:01:33.735Z,11.31
2022-12-22T02:02:54.564Z,11.34
2022-12-22T02:04:16.020Z,11.41
2022-12-22T02:05:39.674Z,11.42
2022-12-22T02:07:04.587Z,11.50
2022-12-22T02:08:52.146Z,11.56
2022-12-22T02:10:41.492Z,11.62
2022-12-22T02:12:23.961Z,11.70
2022-12-22T02:14:35.547Z,11.81
2022-12-22T02:16:09.711Z,11.93
2022-12-22T02:17:48.453Z,11.97
2022-12-22T02:19:40.870Z,11.35
2022-12-22T02:21:09.564Z,10.25
2022-12-22T02:22:51.021Z,9.73
2022-12-22T02:24:50.161Z,9.99
2022-12-22T02:26:49.575Z,10.59
2022-12-22T02:28:14.633Z,11.08
2022-12-22T02:29:41.721Z,11.34
2022-12-22T02:31:03.411Z,11.54
2022-12-22T02:32:25.239Z,11.70
2022-12-22T02:33:45.779Z,11.83
2022-12-22T02:35:06.581Z,11.97
2022-12-22T02:36:49.169Z,12.09
2022-12-22T02:38:58.705Z,11.97
2022-12-22T02:40:58.825Z,10.82
2022-12-22T02:42:28.725Z,9.83
2022-12-22T02:43:55.330Z,9.95
2022-12-22T02:45:33.324Z,10.39
2022-12-22T02:47:11.605Z,10.88
2022-12-22T02:48:59.897Z,11.28
2022-12-22T02:50:37.751Z,11.47
2022-12-22T02:52:10.733Z,11.52
2022-12-22T02:53:35.610Z,11.56
2022-12-22T02:54:57.239Z,11.57
2022-12-22T02:56:23.700Z,11.61
2022-12-22T02:57:44.820Z,11.58
2022-12-22T02:59:05.478Z,11.58
2022-12-22T03:00:27.104Z,11.58
2022-12-22T03:01:48.784Z,11.57
2022-12-22T03:03:09.852Z,11.50
2022-12-22T03:04:30.379Z,11.51
2022-12-22T03:05:50.670Z,11.50
2022-12-22T03:07:11.371Z,11.44
2022-12-22T03:08:31.883Z,11.38
2022-12-22T03:09:52.522Z,11.34
2022-12-22T03:11:13.112Z,11.35
2022-12-22T03:12:33.715Z,11.34
2022-12-22T03:13:54.438Z,11.37
2022-12-22T03:15:14.957Z,11.38
2022-12-22T03:16:35.630Z,11.36
2022-12-22T03:17:56.284Z,11.36
2022-12-22T03:19:16.937Z,11.37
2022-12-22T03:20:37.412Z,11.37
2022-12-22T03:21:58.165Z,11.35
2022-12-22T03:23:24.312Z,11.33
2022-12-22T03:24:44.995Z,11.29
2022-12-22T03:25:53.208Z,11.35
2022-12-22T03:26:58.808Z,11.34
2022-12-22T03:28:08.869Z,11.32
2022-12-22T03:29:10.891Z,11.28
2022-12-22T03:30:13.184Z,11.27
2022-12-22T03:31:15.477Z,11.26
2022-12-22T03:32:17.414Z,11.23
2022-12-22T03:33:19.553Z,11.16
2022-12-22T03:34:21.864Z,11.20
2022-12-22T03:35:23.903Z,11.20
2022-12-22T03:36:25.783Z,11.16
2022-12-22T03:37:27.740Z,11.17
2022-12-22T03:38:29.615Z,11.17
2022-12-22T03:39:31.437Z,11.16
2022-12-22T03:40:33.402Z,11.13
2022-12-22T03:41:54.187Z,11.15
2022-12-22T03:43:14.964Z,11.17
2022-12-22T03:44:35.719Z,11.15
2022-12-22T03:45:55.911Z,11.22
2022-12-22T03:46:57.912Z,11.25
2022-12-22T03:48:00.253Z,11.24
2022-12-22T03:49:10.732Z,11.29
2022-12-22T03:50:12.796Z,11.31
2022-12-22T03:51:15.461Z,11.31
2022-12-22T03:52:17.275Z,11.35
2022-12-22T03:53:19.097Z,11.39
2022-12-22T03:54:23.523Z,11.38
2022-12-22T03:55:25.279Z,11.41
2022-12-22T03:56:27.396Z,11.43
2022-12-22T03:57:29.426Z,11.47
2022-12-22T03:58:31.258Z,11.50
2022-12-22T03:59:33.043Z,11.48
2022-12-22T04:00:35.007Z,11.42
2022-12-22T04:01:41.145Z,11.44
2022-12-22T04:02:43.227Z,11.47
2022-12-22T04:03:46.403Z,11.48
2022-12-22T04:04:48.255Z,11.49
2022-12-22T04:05:50.090Z,11.48
2022-12-22T04:06:52.614Z,11.46
2022-12-22T04:07:54.421Z,11.42
2022-12-22T04:08:56.379Z,11.36
2022-12-22T04:10:17.374Z,11.36
2022-12-22T04:11:38.126Z,11.38
2022-12-22T04:12:54.995Z,11.41
2022-12-22T04:13:56.941Z,11.40
2022-12-22T04:14:58.729Z,11.41
2022-12-22T04:16:00.813Z,11.39
2022-12-22T04:17:05.559Z,11.34
2022-12-22T04:18:07.536Z,11.30
2022-12-22T04:19:10.068Z,11.31
2022-12-22T04:20:12.330Z,11.33
2022-12-22T04:21:14.146Z,11.34
2022-12-22T04:22:16.168Z,11.35
2022-12-22T04:23:18.067Z,11.38
2022-12-22T04:24:19.920Z,11.43
2022-12-22T04:25:22.412Z,11.48
2022-12-22T04:26:25.453Z,11.54
2022-12-22T04:27:27.380Z,11.56
2022-12-22T04:28:29.333Z,11.55
2022-12-22T04:29:31.199Z,11.56
2022-12-22T04:30:33.153Z,11.59
2022-12-22T04:31:36.466Z,11.62
2022-12-22T04:32:38.443Z,11.65
2022-12-22T04:33:41.210Z,11.65
2022-12-22T04:34:43.058Z,11.67
2022-12-22T04:35:44.983Z,11.65
2022-12-22T04:36:46.892Z,11.64
2022-12-22T04:37:48.813Z,11.64
2022-12-22T04:38:50.732Z,11.64
2022-12-22T04:39:52.563Z,11.60
2022-12-22T04:40:54.472Z,11.28
2022-12-22T04:41:56.311Z,10.74
2022-12-22T04:42:58.092Z,10.15
2022-12-22T04:44:00.245Z,9.60
2022-12-22T04:45:02.098Z,9.36
2022-12-22T04:46:05.147Z,9.50
2022-12-22T04:47:07.101Z,9.77
2022-12-22T04:48:08.967Z,10.07
2022-12-22T04:49:10.999Z,10.35
2022-12-22T04:50:13.170Z,10.59
2022-12-22T04:51:15.189Z,10.78
2022-12-22T04:52:17.113Z,10.87
2022-12-22T04:53:19.754Z,10.94
2022-12-22T04:54:21.619Z,10.98
2022-12-22T04:55:23.471Z,11.04
2022-12-22T04:56:25.315Z,11.10
2022-12-22T04:57:27.099Z,11.15
2022-12-22T04:58:29.747Z,11.19
2022-12-22T04:59:31.538Z,11.18
2022-12-22T05:00:33.365Z,11.22
2022-12-22T05:01:35.277Z,11.26
2022-12-22T05:02:37.608Z,11.33
2022-12-22T05:03:40.023Z,11.37
2022-12-22T05:04:41.999Z,11.45
2022-12-22T05:05:43.987Z,11.50
2022-12-22T05:06:45.791Z,11.56
2022-12-22T05:07:47.580Z,11.61
2022-12-22T05:08:49.392Z,11.65
2022-12-22T05:09:51.258Z,11.64
2022-12-22T05:10:53.097Z,11.34
2022-12-22T05:11:54.938Z,10.81
2022-12-22T05:12:57.248Z,10.23
2022-12-22T05:14:05.248Z,9.65
2022-12-22T05:15:09.704Z,9.27
2022-12-22T05:16:17.406Z,9.34
2022-12-22T05:17:19.489Z,9.60
2022-12-22T05:18:21.358Z,9.88
2022-12-22T05:19:29.085Z,10.13
2022-12-22T05:20:36.139Z,10.31
2022-12-22T05:21:37.929Z,10.48
2022-12-22T05:22:39.831Z,10.63
2022-12-22T05:23:42.201Z,10.73
2022-12-22T05:24:44.105Z,10.78
2022-12-22T05:25:46.005Z,10.82
2022-12-22T05:26:47.864Z,10.86
2022-12-22T05:27:51.085Z,10.90
2022-12-22T05:28:53.437Z,10.87
2022-12-22T05:29:55.442Z,10.88
2022-12-22T05:30:57.454Z,10.91
2022-12-22T05:31:59.742Z,10.91
2022-12-22T05:33:02.263Z,10.90
2022-12-22T05:34:04.127Z,10.88
2022-12-22T05:35:07.597Z,10.87
2022-12-22T05:36:09.626Z,10.91
2022-12-22T05:37:11.691Z,10.91
2022-12-22T05:38:13.812Z,10.95
2022-12-22T05:39:15.729Z,10.98
2022-12-22T05:40:17.563Z,10.96
2022-12-22T05:41:19.453Z,10.92
2022-12-22T05:42:36.053Z,10.89
2022-12-22T05:43:38.193Z,10.92
2022-12-22T05:44:40.100Z,10.89
2022-12-22T05:45:42.228Z,10.89
2022-12-22T05:46:44.299Z,10.87
2022-12-22T05:47:51.649Z,10.86
2022-12-22T05:48:53.565Z,10.92
2022-12-22T05:49:55.429Z,10.98
2022-12-22T05:50:57.406Z,11.04
2022-12-22T05:51:59.240Z,11.05
2022-12-22T05:53:01.387Z,11.09
2022-12-22T05:54:03.576Z,11.13
2022-12-22T05:55:07.030Z,11.18
2022-12-22T05:56:09.206Z,11.20
2022-12-22T05:57:11.073Z,11.21
2022-12-22T05:58:13.247Z,11.23
2022-12-22T05:59:15.264Z,11.21
2022-12-22T06:00:17.940Z,11.21
2022-12-22T06:01:19.718Z,11.21
2022-12-22T06:02:22.060Z,11.26
2022-12-22T06:03:26.463Z,11.27
2022-12-22T06:04:28.522Z,11.28
2022-12-22T06:05:31.208Z,11.28
2022-12-22T06:06:33.470Z,11.29
2022-12-22T06:07:35.432Z,11.28
2022-12-22T06:08:37.355Z,11.23
2022-12-22T06:09:39.460Z,11.20
2022-12-22T06:10:41.314Z,11.21
2022-12-22T06:11:43.564Z,11.18
2022-12-22T06:12:45.487Z,11.09
2022-12-22T06:13:47.495Z,11.09
2022-12-22T06:14:49.846Z,11.07
2022-12-22T06:15:51.998Z,11.02
2022-12-22T06:16:54.024Z,10.98
2022-12-22T06:17:56.398Z,10.98
2022-12-22T06:18:58.850Z,10.99
2022-12-22T06:20:01.090Z,10.97
2022-12-22T06:21:04.028Z,10.92
2022-12-22T06:22:06.254Z,10.88
2022-12-22T06:23:08.594Z,10.85
2022-12-22T06:24:11.118Z,10.85
2022-12-22T06:25:17.989Z,10.84
2022-12-22T06:26:21.495Z,10.89
2022-12-22T06:27:23.708Z,10.95
2022-12-22T06:28:26.660Z,11.01
2022-12-22T06:29:28.588Z,11.08
2022-12-22T06:30:33.533Z,11.13
2022-12-22T06:31:36.299Z,11.19
2022-12-22T06:32:39.624Z,11.24
2022-12-22T06:33:42.262Z,11.28
2022-12-22T06:34:44.437Z,11.30
2022-12-22T06:35:49.633Z,11.31
2022-12-22T06:36:54.515Z,11.33
2022-12-22T06:37:56.659Z,11.38
2022-12-22T06:38:58.517Z,11.26
2022-12-22T06:40:00.609Z,10.84
2022-12-22T06:41:02.522Z,10.26
2022-12-22T06:42:23.753Z,9.66
2022-12-22T06:43:26.505Z,9.04
2022-12-22T06:44:28.743Z,8.97
2022-12-22T06:45:30.590Z,9.16
2022-12-22T06:46:33.189Z,9.44
2022-12-22T06:47:36.469Z,9.71
2022-12-22T06:48:38.366Z,9.95
2022-12-22T06:49:40.232Z,10.14
2022-12-22T06:50:42.409Z,10.28
2022-12-22T06:51:44.395Z,10.40
2022-12-22T06:52:47.371Z,10.49
2022-12-22T06:53:49.357Z,10.57
2022-12-22T06:54:51.168Z,10.63
2022-12-22T06:55:53.221Z,10.68
2022-12-22T06:56:55.190Z,10.72
2022-12-22T06:57:57.511Z,10.77
2022-12-22T06:58:59.858Z,10.79
2022-12-22T07:00:02.243Z,10.82
2022-12-22T07:01:04.355Z,10.84
2022-12-22T07:02:07.077Z,10.85
2022-12-22T07:03:09.598Z,10.85
2022-12-22T07:04:17.371Z,10.82
2022-12-22T07:05:19.988Z,10.85
2022-12-22T07:06:22.115Z,10.87
2022-12-22T07:07:24.241Z,10.89
2022-12-22T07:08:26.583Z,10.93
2022-12-22T07:09:29.212Z,10.95
2022-12-22T07:10:49.739Z,10.99
2022-12-22T07:11:51.880Z,11.01
2022-12-22T07:12:53.850Z,11.02
2022-12-22T07:13:55.897Z,11.05
2022-12-22T07:14:58.119Z,11.07
2022-12-22T07:16:02.534Z,11.09
2022-12-22T07:17:04.728Z,11.12
2022-12-22T07:18:06.666Z,11.14
2022-12-22T07:19:08.765Z,11.16
2022-12-22T07:20:11.268Z,11.20
2022-12-22T07:21:14.590Z,11.20
2022-12-22T07:22:16.854Z,11.19
2022-12-22T07:23:18.930Z,11.20
2022-12-22T07:24:25.053Z,11.10
2022-12-22T07:25:27.397Z,10.67
2022-12-22T07:26:29.446Z,10.11
2022-12-22T07:27:31.550Z,9.53
2022-12-22T07:28:39.114Z,9.16
2022-12-22T07:29:42.401Z,9.18
2022-12-22T07:30:44.480Z,9.41
2022-12-22T07:31:47.577Z,9.70
2022-12-22T07:32:49.830Z,9.95
2022-12-22T07:33:52.451Z,10.13
2022-12-22T07:34:56.844Z,10.25
2022-12-22T07:36:04.324Z,10.36
2022-12-22T07:37:06.482Z,10.45
2022-12-22T07:38:08.340Z,10.49
2022-12-22T07:39:12.060Z,10.50
2022-12-22T07:40:14.368Z,10.52
2022-12-22T07:41:37.506Z,10.55
2022-12-22T07:42:46.524Z,10.57
2022-12-22T07:43:48.381Z,10.64
2022-12-22T07:44:50.246Z,10.71
2022-12-22T07:45:52.214Z,10.74
2022-12-22T07:46:55.311Z,10.75
2022-12-22T07:48:02.294Z,10.76
2022-12-22T07:49:25.281Z,10.81
2022-12-22T07:50:32.667Z,10.87
2022-12-22T07:51:36.626Z,10.90
2022-12-22T07:52:38.474Z,10.94
2022-12-22T07:53:40.444Z,10.99
2022-12-22T07:54:42.548Z,11.03
2022-12-22T07:55:44.553Z,11.07
2022-12-22T07:56:46.911Z,11.13
2022-12-22T07:57:49.828Z,11.20
2022-12-22T07:58:51.745Z,11.28
2022-12-22T07:59:53.892Z,11.30
2022-12-22T08:01:01.939Z,11.33
2022-12-22T08:02:04.072Z,11.37
2022-12-22T08:03:07.014Z,11.42
2022-12-22T08:04:10.450Z,11.47
2022-12-22T08:05:12.440Z,11.50
2022-12-22T08:06:15.046Z,11.52
2022-12-22T08:07:17.150Z,11.58
2022-12-22T08:08:19.134Z,11.62
2022-12-22T08:09:23.277Z,11.66
2022-12-22T08:10:25.317Z,11.70
2022-12-22T08:11:27.651Z,11.69
2022-12-22T08:12:29.926Z,11.41
2022-12-22T08:13:32.375Z,10.88
2022-12-22T08:14:34.422Z,10.32
2022-12-22T08:15:38.107Z,9.83
2022-12-22T08:16:40.039Z,9.67
2022-12-22T08:17:42.271Z,9.83
2022-12-22T08:18:44.681Z,10.07
2022-12-22T08:19:46.531Z,10.32
2022-12-22T08:20:52.107Z,10.54
2022-12-22T08:21:53.991Z,10.72
2022-12-22T08:22:57.637Z,10.89
2022-12-22T08:23:59.531Z,11.06
2022-12-22T08:25:01.767Z,11.16
2022-12-22T08:26:22.478Z,11.19
2022-12-22T08:27:40.503Z,11.23
2022-12-22T08:28:54.656Z,11.30
2022-12-22T08:30:01.441Z,11.35
2022-12-22T08:31:04.818Z,11.37
2022-12-22T08:32:07.409Z,11.42
2022-12-22T08:33:09.692Z,11.47
2022-12-22T08:34:16.507Z,11.51
2022-12-22T08:35:18.967Z,11.56
2022-12-22T08:36:21.209Z,11.63
2022-12-22T08:37:29.711Z,11.67
2022-12-22T08:38:32.175Z,11.70
2022-12-22T08:39:40.332Z,11.74
2022-12-22T08:40:45.876Z,11.77
2022-12-22T08:41:51.049Z,11.77
2022-12-22T08:42:59.560Z,11.76
2022-12-22T08:44:01.653Z,11.74
2022-12-22T08:45:05.136Z,11.51
2022-12-22T08:46:07.629Z,11.01
2022-12-22T08:47:16.452Z,10.46
2022-12-22T08:48:19.444Z,9.90
2022-12-22T08:49:22.222Z,9.70
2022-12-22T08:50:24.420Z,9.85
2022-12-22T08:51:26.315Z,10.14
2022-12-22T08:52:28.498Z,10.45
2022-12-22T08:54:03.197Z,10.73
2022-12-22T08:54:52.730Z,11.01
2022-12-22T08:55:56.322Z,11.16
2022-12-22T08:56:58.743Z,11.29
2022-12-22T08:58:01.351Z,11.41
2022-12-22T08:59:05.528Z,11.52
2022-12-22T09:00:10.693Z,11.62
2022-12-22T09:01:21.652Z,11.70
2022-12-22T09:02:24.170Z,11.77
2022-12-22T09:03:26.338Z,11.83
2022-12-22T09:04:28.308Z,11.88
2022-12-22T09:05:30.451Z,11.90
2022-12-22T09:06:40.138Z,11.91
2022-12-22T09:07:42.748Z,11.91
2022-12-22T09:08:44.657Z,11.86
2022-12-22T09:09:46.973Z,11.56
2022-12-22T09:10:49.163Z,11.02
2022-12-22T09:11:51.984Z,10.42
2022-12-22T09:12:53.779Z,9.87
2022-12-22T09:13:59.114Z,9.59
2022-12-22T09:15:02.167Z,9.68
2022-12-22T09:16:09.469Z,9.97
2022-12-22T09:17:11.625Z,10.29
2022-12-22T09:18:13.832Z,10.54
2022-12-22T09:19:15.696Z,10.75
2022-12-22T09:20:17.899Z,10.93
2022-12-22T09:21:20.204Z,11.08
2022-12-22T09:22:28.347Z,11.24
2022-12-22T09:23:33.015Z,11.38
2022-12-22T09:24:35.582Z,11.49
2022-12-22T09:25:37.547Z,11.58
2022-12-22T09:26:39.978Z,11.67
2022-12-22T09:27:42.138Z,11.75
2022-12-22T09:28:49.842Z,11.82
2022-12-22T09:29:52.326Z,11.89
2022-12-22T09:30:54.423Z,11.94
2022-12-22T09:31:56.419Z,11.99
2022-12-22T09:32:58.853Z,12.04
2022-12-22T09:34:01.442Z,12.01
2022-12-22T09:35:03.762Z,11.66
2022-12-22T09:36:10.853Z,11.15
2022-12-22T09:37:16.011Z,10.56
2022-12-22T09:38:18.286Z,10.05
2022-12-22T09:39:26.714Z,9.83
2022-12-22T09:40:32.602Z,10.01
2022-12-22T09:41:48.294Z,10.33
2022-12-22T09:42:50.534Z,10.71
2022-12-22T09:43:52.790Z,10.97
2022-12-22T09:44:54.967Z,11.20
2022-12-22T09:45:58.798Z,11.38
2022-12-22T09:47:04.683Z,11.51
2022-12-22T09:48:12.760Z,11.64
2022-12-22T09:49:17.721Z,11.73
2022-12-22T09:50:23.644Z,11.80
2022-12-22T09:51:27.666Z,11.87
2022-12-22T09:52:36.119Z,11.91
2022-12-22T09:53:38.891Z,11.91
2022-12-22T09:54:40.948Z,11.91
2022-12-22T09:55:47.366Z,11.95
2022-12-22T09:56:49.607Z,12.02
2022-12-22T09:57:54.280Z,11.88
2022-12-22T09:58:58.447Z,11.48
2022-12-22T10:00:28.376Z,10.89
2022-12-22T10:02:00.681Z,10.11
2022-12-22T10:03:24.640Z,9.64
2022-12-22T10:04:59.315Z,9.87
2022-12-22T10:06:12.273Z,10.34
2022-12-22T10:07:32.103Z,10.67
2022-12-22T10:08:37.678Z,10.95
2022-12-22T10:09:50.645Z,11.13
2022-12-22T10:10:55.324Z,11.34
2022-12-22T10:12:00.471Z,11.46
2022-12-22T10:13:04.828Z,11.59
2022-12-22T10:14:06.882Z,11.64
2022-12-22T10:15:16.888Z,11.72
2022-12-22T10:16:29.085Z,11.82
2022-12-22T10:17:33.951Z,11.93
2022-12-22T10:18:35.917Z,12.02
2022-12-22T10:19:38.072Z,12.01
2022-12-22T10:20:42.292Z,11.90
2022-12-22T10:21:47.167Z,11.60
2022-12-22T10:22:59.393Z,11.09
2022-12-22T10:24:16.335Z,10.46
2022-12-22T10:25:45.241Z,9.89
2022-12-22T10:26:59.566Z,9.75
2022-12-22T10:28:07.805Z,10.00
2022-12-22T10:29:14.319Z,10.33
2022-12-22T10:30:26.247Z,10.66
2022-12-22T10:31:31.889Z,10.97
2022-12-22T10:32:33.729Z,11.21
2022-12-22T10:33:37.787Z,11.40
2022-12-22T10:35:02.724Z,11.56
2022-12-22T10:36:06.063Z,11.69
2022-12-22T10:37:07.995Z,11.81
2022-12-22T10:38:22.307Z,11.91
2022-12-22T10:39:29.562Z,12.02
2022-12-22T10:40:33.844Z,12.05
2022-12-22T10:41:43.519Z,12.10
2022-12-22T10:42:54.024Z,11.98
2022-12-22T10:43:58.457Z,11.51
2022-12-22T10:45:00.593Z,10.99
2022-12-22T10:46:05.286Z,10.53
2022-12-22T10:47:22.089Z,10.22
2022-12-22T10:48:41.957Z,10.35
2022-12-22T10:49:48.268Z,10.72
2022-12-22T10:50:50.275Z,11.05
2022-12-22T10:52:12.934Z,11.34
2022-12-22T10:53:15.687Z,11.66
2022-12-22T10:54:26.496Z,11.85
2022-12-22T10:55:29.903Z,12.02
2022-12-22T10:56:33.260Z,12.12
2022-12-22T10:57:35.178Z,12.23
2022-12-22T10:59:04.692Z,12.34
2022-12-22T11:00:26.814Z,12.14
2022-12-22T11:01:33.235Z,11.56
2022-12-22T11:02:38.328Z,11.01
2022-12-22T11:03:41.714Z,10.54
2022-12-22T11:04:43.797Z,10.13
2022-12-22T11:05:46.263Z,9.98
2022-12-22T11:06:48.420Z,10.18
2022-12-22T11:07:51.671Z,10.51
2022-12-22T11:08:53.687Z,10.87
2022-12-22T11:09:59.627Z,11.21
2022-12-22T11:11:13.633Z,11.51
2022-12-22T11:12:21.275Z,11.78
2022-12-22T11:13:41.516Z,11.95
2022-12-22T11:15:23.939Z,12.13
2022-12-22T11:16:32.365Z,12.31
2022-12-22T11:17:58.656Z,12.32
2022-12-22T11:19:35.924Z,11.83
2022-12-22T11:21:09.188Z,10.96
2022-12-22T11:22:35.970Z,10.21
2022-12-22T11:23:50.792Z,9.69
2022-12-22T11:25:05.264Z,9.76
2022-12-22T11:26:51.072Z,10.09
2022-12-22T11:28:17.993Z,10.60
2022-12-22T11:29:34.025Z,10.93
2022-12-22T11:30:43.610Z,11.13
2022-12-22T11:31:51.364Z,11.29
2022-12-22T11:33:31.014Z,11.40
2022-12-22T11:34:38.866Z,11.56
2022-12-22T11:36:05.243Z,11.67
2022-12-22T11:37:48.490Z,11.72
2022-12-22T11:39:03.880Z,11.82
2022-12-22T11:40:30.770Z,11.83
2022-12-22T11:41:59.493Z,11.80
2022-12-22T11:43:23.428Z,11.30
2022-12-22T11:44:51.303Z,10.58
2022-12-22T11:46:21.254Z,9.86
2022-12-22T11:47:43.706Z,9.52
2022-12-22T11:49:12.777Z,9.78
2022-12-22T11:50:58.140Z,10.22
2022-12-22T11:52:31.410Z,10.67
2022-12-22T11:54:10.386Z,10.97
2022-12-22T11:55:34.682Z,11.23
2022-12-22T11:56:58.277Z,11.40
2022-12-22T11:58:18.969Z,11.56
2022-12-22T11:59:44.362Z,11.67
2022-12-22T12:01:22.435Z,11.80
2022-12-22T12:02:45.139Z,11.92
2022-12-22T12:04:00.842Z,11.91
2022-12-22T12:05:21.801Z,11.50
2022-12-22T12:06:26.476Z,10.82
2022-12-22T12:07:38.062Z,10.26
2022-12-22T12:09:04.419Z,9.81
2022-12-22T12:10:20.560Z,9.90
2022-12-22T12:11:34.377Z,10.25
2022-12-22T12:12:49.931Z,10.60
2022-12-22T12:14:05.123Z,10.92
2022-12-22T12:15:19.229Z,11.14
2022-12-22T12:16:42.711Z,11.30
2022-12-22T12:18:23.896Z,11.43
2022-12-22T12:19:31.761Z,11.57
2022-12-22T12:21:22.011Z,11.67
2022-12-22T12:22:49.612Z,11.82
2022-12-22T12:24:10.183Z,11.90
2022-12-22T12:25:31.403Z,11.97
2022-12-22T12:27:01.314Z,12.03
2022-12-22T12:28:23.841Z,12.06
2022-12-22T12:29:32.805Z,12.11
2022-12-22T12:30:50.649Z,12.16
2022-12-22T12:32:07.204Z,12.17
2022-12-22T12:33:54.267Z,12.21
2022-12-22T12:35:16.046Z,11.74
2022-12-22T12:36:29.881Z,10.98
2022-12-22T12:37:38.316Z,10.34
2022-12-22T12:39:08.688Z,9.88
2022-12-22T12:40:29.938Z,9.95
2022-12-22T12:41:51.720Z,10.28
2022-12-22T12:42:57.386Z,10.62
2022-12-22T12:44:03.462Z,10.88
2022-12-22T12:45:41.175Z,11.11
2022-12-22T12:46:54.198Z,11.37
2022-12-22T12:48:22.984Z,11.49
2022-12-22T12:49:33.959Z,11.66
2022-12-22T12:50:35.998Z,11.77
2022-12-22T12:51:50.219Z,11.84
2022-12-22T12:52:52.151Z,11.93
2022-12-22T12:54:31.837Z,11.99
2022-12-22T12:55:52.899Z,12.06
2022-12-22T12:57:00.992Z,12.08
2022-12-22T12:58:05.009Z,12.13
2022-12-22T12:59:07.689Z,12.19
2022-12-22T13:00:35.839Z,12.20
2022-12-22T13:01:43.784Z,12.22
2022-12-22T13:02:57.354Z,12.23
2022-12-22T13:04:04.483Z,12.18
2022-12-22T13:05:13.441Z,12.14
2022-12-22T13:06:53.607Z,11.75
2022-12-22T13:08:24.823Z,10.91
2022-12-22T13:10:55.133Z,9.97
2022-12-22T13:12:13.862Z,10.19
2022-12-22T13:13:21.491Z,10.60
2022-12-22T13:15:02.325Z,10.89
2022-12-22T13:16:04.796Z,11.30
2022-12-22T13:17:33.066Z,11.50
2022-12-22T13:18:35.252Z,11.71
2022-12-22T13:19:37.865Z,11.83
2022-12-22T13:20:40.096Z,11.92
2022-12-22T13:21:54.315Z,12.01
2022-12-22T13:23:00.184Z,12.10
2022-12-22T13:24:24.859Z,12.20
2022-12-22T13:25:56.186Z,12.31
2022-12-22T13:27:07.086Z,12.41
2022-12-22T13:28:20.261Z,12.44
2022-12-22T13:29:22.263Z,12.41
2022-12-22T13:30:29.300Z,12.08
2022-12-22T13:31:36.540Z,11.51
2022-12-22T13:32:41.392Z,10.92
2022-12-22T13:33:45.339Z,10.45
2022-12-22T13:35:30.551Z,10.34
2022-12-22T13:36:29.706Z,10.64
2022-12-22T13:37:43.437Z,10.91
2022-12-22T13:38:46.882Z,11.19
2022-12-22T13:40:18.772Z,11.36
2022-12-22T13:41:27.160Z,11.58
2022-12-22T13:42:31.560Z,11.74
2022-12-22T13:43:33.709Z,11.87
2022-12-22T13:44:35.985Z,11.98
2022-12-22T13:45:43.481Z,12.07
2022-12-22T13:46:47.010Z,12.14
2022-12-22T13:47:50.724Z,12.21
2022-12-22T13:48:57.126Z,12.29
2022-12-22T13:50:09.120Z,12.37
2022-12-22T13:51:24.929Z,12.40
2022-12-22T13:52:27.238Z,12.43
2022-12-22T13:54:07.171Z,12.37
2022-12-22T13:54:57.155Z,11.71
2022-12-22T13:55:59.670Z,11.13
2022-12-22T13:57:12.655Z,10.60
2022-12-22T13:58:29.954Z,10.14
2022-12-22T13:59:40.424Z,10.18
2022-12-22T14:00:42.364Z,10.50
2022-12-22T14:01:52.427Z,10.80
2022-12-22T14:02:54.919Z,11.11
2022-12-22T14:04:04.586Z,11.34
2022-12-22T14:05:11.388Z,11.53
2022-12-22T14:06:36.370Z,11.65
2022-12-22T14:07:38.935Z,11.77
2022-12-22T14:08:42.222Z,11.79
2022-12-22T14:09:50.085Z,11.85
2022-12-22T14:10:54.525Z,11.91
2022-12-22T14:12:02.547Z,11.95
2022-12-22T14:13:23.530Z,12.01
2022-12-22T14:14:29.530Z,12.04
2022-12-22T14:15:31.712Z,12.10
2022-12-22T14:16:34.021Z,12.15
2022-12-22T14:17:42.266Z,12.18
2022-12-22T14:18:46.802Z,12.16
2022-12-22T14:19:52.653Z,12.18
2022-12-22T14:20:56.310Z,12.23
2022-12-22T14:22:14.741Z,12.25
2022-12-22T14:23:33.562Z,12.01
2022-12-22T14:24:43.634Z,11.39
2022-12-22T14:25:48.097Z,10.76
2022-12-22T14:26:53.451Z,10.22
2022-12-22T14:27:57.457Z,9.82
2022-12-22T14:28:59.710Z,9.83
2022-12-22T14:30:06.512Z,10.08
2022-12-22T14:31:13.333Z,10.43
2022-12-22T14:32:36.604Z,10.75
2022-12-22T14:33:39.113Z,11.08
2022-12-22T14:34:41.472Z,11.29
2022-12-22T14:35:43.749Z,11.46
2022-12-22T14:36:54.029Z,11.57
2022-12-22T14:38:26.156Z,11.69
2022-12-22T14:39:31.608Z,11.81
2022-12-22T14:40:40.969Z,11.89
2022-12-22T14:41:56.423Z,11.93
2022-12-22T14:43:01.883Z,12.02
2022-12-22T14:44:05.066Z,12.09
2022-12-22T14:45:16.140Z,12.13
2022-12-22T14:46:18.879Z,12.17
2022-12-22T14:47:26.688Z,12.22
2022-12-22T14:48:34.221Z,12.24
2022-12-22T14:49:46.400Z,12.05
2022-12-22T14:50:50.418Z,11.49
2022-12-22T14:52:00.958Z,10.86
2022-12-22T14:53:05.730Z,10.26
2022-12-22T14:54:21.027Z,10.03
2022-12-22T14:55:26.023Z,10.19
2022-12-22T14:56:28.226Z,10.46
2022-12-22T14:57:36.591Z,10.72
2022-12-22T14:58:42.378Z,10.99
2022-12-22T15:00:04.442Z,11.20
2022-12-22T15:01:15.797Z,11.38
2022-12-22T15:02:35.030Z,11.51
2022-12-22T15:03:41.279Z,11.65
2022-12-22T15:04:43.292Z,11.72
2022-12-22T15:05:45.575Z,11.76
2022-12-22T15:06:49.297Z,11.82
2022-12-22T15:08:10.394Z,11.84
2022-12-22T15:09:15.808Z,11.92
2022-12-22T15:10:18.681Z,11.98
2022-12-22T15:11:24.409Z,12.05
2022-12-22T15:12:26.970Z,12.08
2022-12-22T15:13:30.740Z,12.08
2022-12-22T15:14:38.780Z,12.04
2022-12-22T15:15:41.200Z,12.01
2022-12-22T15:16:45.374Z,12.00
2022-12-22T15:17:51.107Z,11.97
2022-12-22T15:18:53.889Z,11.93
2022-12-22T15:19:59.307Z,11.94